Time,TemperatureF,DewpointF,PressureIn,WindDirection,WindDirectionDegrees,WindSpeedMPH,WindSpeedGustMPH,Humidity,HourlyPrecipIn,Conditions,Clouds,dailyrainin,SoftwareType,DateUTC
2013-03-31 00:00:00,65.5,53.4,30.23,SE,141,0.0,6.9,65,0.00,,,0.00,WUHU216PEETBRO,2013-03-31 04:00:00,
2013-03-31 00:05:00,65.4,53.3,30.23,East,98,0.0,8.9,65,0.00,,,0.00,WUHU216PEETBRO,2013-03-31 04:05:00,
2013-03-31 00:10:00,65.2,53.2,30.22,South,179,6.1,9.6,65,0.00,,,0.00,WUHU216PEETBRO,2013-03-31 04:10:00,
2013-03-31 00:15:00,65.2,53.3,30.22,SE,139,5.3,9.6,65,0.00,,,0.00,WUHU216PEETBRO,2013-03-31 04:15:00,
2013-03-31 00:20:00,65.0,53.1,30.22,East,91,3.5,8.7,65,0.00,,,0.00,WUHU216PEETBRO,2013-03-31 04:20:00,
2013-03-31 00:25:00,65.1,53.2,30.22,South,173,4.7,7.4,65,0.00,,,0.00,WUHU216PEETBRO,2013-03-31 04:25:00,
2013-03-31 00:30:00,65.0,53.0,30.22,SE,131,0.0,6.9,65,0.00,,,0.00,WUHU216PEETBRO,2013-03-31 04:30:00,
2013-03-31 00:35:00,64.9,52.6,30.22,SE,131,0.0,8.6,64,0.00,,,0.00,WUHU216PEETBRO,2013-03-31 04:35:00,
2013-03-31 00:40:00,65.0,52.6,30.22,South,177,0.0,8.6,64,0.00,,,0.00,WUHU216PEETBRO,2013-03-31 04:40:00,
2013-03-31 00:45:00,64.8,52.4,30.22,SSE,149,4.3,9.5,64,0.00,,,0.00,WUHU216PEETBRO,2013-03-31 04:45:00,
2013-03-31 00:50:00,64.8,52.3,30.22,SE,129,0.0,9.5,64,0.00,,,0.00,WUHU216PEETBRO,2013-03-31 04:50:00,
2013-03-31 00:55:00,64.8,52.2,30.22,South,187,0.0,7.5,63,0.00,,,0.00,WUHU216PEETBRO,2013-03-31 04:55:00,
2013-03-31 01:00:00,64.8,52.2,30.22,South,187,0.0,4.3,63,0.00,,,0.00,WUHU216PEETBRO,2013-03-31 05:00:00,
2013-03-31 01:05:00,64.8,52.0,30.22,SSE,158,6.6,6.6,63,0.00,,,0.00,WUHU216PEETBRO,2013-03-31 05:05:00,
2013-03-31 01:10:00,64.6,51.6,30.22,South,170,3.5,7.1,62,0.00,,,0.00,WUHU216PEETBRO,2013-03-31 05:10:00,
2013-03-31 01:15:00,64.7,51.7,30.21,ESE,105,0.0,7.1,62,0.00,,,0.00,WUHU216PEETBRO,2013-03-31 05:15:00,
2013-03-31 01:20:00,64.7,51.5,30.21,SSE,163,0.0,7.1,62,0.00,,,0.00,WUHU216PEETBRO,2013-03-31 05:20:00,
2013-03-31 01:25:00,64.7,51.5,30.21,SSE,162,0.0,7.1,62,0.00,,,0.00,WUHU216PEETBRO,2013-03-31 05:25:00,
2013-03-31 01:30:00,64.7,51.5,30.21,SE,146,4.3,6.7,62,0.00,,,0.00,WUHU216PEETBRO,2013-03-31 05:30:00,
2013-03-31 01:35:00,64.7,51.4,30.21,SE,141,5.2,6.2,62,0.00,,,0.00,WUHU216PEETBRO,2013-03-31 05:35:00,
2013-03-31 01:40:00,64.8,51.3,30.21,SSE,159,5.9,6.3,61,0.00,,,0.00,WUHU216PEETBRO,2013-03-31 05:40:00,
2013-03-31 01:45:00,64.8,51.3,30.21,South,184,6.1,9.5,61,0.00,,,0.00,WUHU216PEETBRO,2013-03-31 05:45:00,
2013-03-31 01:50:00,64.8,51.3,30.21,SE,127,0.0,9.5,61,0.00,,,0.00,WUHU216PEETBRO,2013-03-31 05:50:00,
2013-03-31 01:55:00,64.7,51.2,30.20,SSE,165,7.0,9.0,61,0.00,,,0.00,WUHU216PEETBRO,2013-03-31 05:55:00,
2013-03-31 02:00:00,64.7,51.3,30.20,SE,136,4.4,9.0,61,0.00,,,0.00,WUHU216PEETBRO,2013-03-31 06:00:00,
2013-03-31 02:05:00,64.7,51.3,30.20,SSE,163,7.0,8.6,62,0.00,,,0.00,WUHU216PEETBRO,2013-03-31 06:05:00,
2013-03-31 02:10:00,64.8,51.4,30.20,SE,146,4.8,8.7,61,0.00,,,0.00,WUHU216PEETBRO,2013-03-31 06:10:00,
2013-03-31 02:15:00,64.8,51.5,30.19,ESE,112,0.0,8.7,62,0.00,,,0.00,WUHU216PEETBRO,2013-03-31 06:15:00,
2013-03-31 02:20:00,64.7,51.5,30.19,SSE,153,6.2,8.7,62,0.00,,,0.00,WUHU216PEETBRO,2013-03-31 06:20:00,
2013-03-31 02:25:00,64.8,51.7,30.19,SSE,163,5.8,7.1,62,0.00,,,0.00,WUHU216PEETBRO,2013-03-31 06:25:00,
2013-03-31 02:30:00,64.6,51.6,30.19,SE,146,0.0,7.1,62,0.00,,,0.00,WUHU216PEETBRO,2013-03-31 06:30:00,
2013-03-31 02:35:00,64.7,51.8,30.19,South,173,5.9,8.4,63,0.00,,,0.00,WUHU216PEETBRO,2013-03-31 06:35:00,
2013-03-31 02:40:00,64.6,52.0,30.19,ESE,119,3.3,8.5,63,0.00,,,0.00,WUHU216PEETBRO,2013-03-31 06:40:00,
2013-03-31 02:45:00,64.6,52.0,30.18,SE,136,0.0,8.5,63,0.00,,,0.00,WUHU216PEETBRO,2013-03-31 06:45:00,
2013-03-31 02:50:00,64.6,52.1,30.18,ESE,117,0.0,7.0,64,0.00,,,0.00,WUHU216PEETBRO,2013-03-31 06:50:00,
2013-03-31 02:55:00,64.6,52.3,30.19,SE,134,0.0,8.8,64,0.00,,,0.00,WUHU216PEETBRO,2013-03-31 06:55:00,
2013-03-31 03:00:00,64.4,52.2,30.19,SSE,162,0.0,8.8,64,0.00,,,0.00,WUHU216PEETBRO,2013-03-31 07:00:00,
2013-03-31 03:05:00,64.5,52.4,30.19,SE,127,4.3,8.2,64,0.00,,,0.00,WUHU216PEETBRO,2013-03-31 07:05:00,
2013-03-31 03:10:00,64.6,52.6,30.19,SSE,166,0.0,8.2,65,0.00,,,0.00,WUHU216PEETBRO,2013-03-31 07:10:00,
2013-03-31 03:15:00,64.5,52.6,30.18,South,175,5.7,7.8,65,0.00,,,0.00,WUHU216PEETBRO,2013-03-31 07:15:00,
2013-03-31 03:20:00,64.4,52.8,30.18,South,172,0.0,7.2,66,0.00,,,0.00,WUHU216PEETBRO,2013-03-31 07:20:00,
2013-03-31 03:25:00,64.3,52.9,30.18,SSE,156,0.0,6.3,66,0.00,,,0.00,WUHU216PEETBRO,2013-03-31 07:25:00,
2013-03-31 03:30:00,64.3,53.0,30.18,South,176,4.3,5.5,66,0.00,,,0.00,WUHU216PEETBRO,2013-03-31 07:30:00,
2013-03-31 03:35:00,64.2,53.1,30.18,SE,125,0.0,6.2,67,0.00,,,0.00,WUHU216PEETBRO,2013-03-31 07:35:00,
2013-03-31 03:40:00,64.1,53.2,30.18,SSE,167,0.0,6.2,67,0.00,,,0.00,WUHU216PEETBRO,2013-03-31 07:40:00,
2013-03-31 03:45:00,64.0,53.3,30.18,South,179,5.6,6.0,68,0.00,,,0.00,WUHU216PEETBRO,2013-03-31 07:45:00,
2013-03-31 03:50:00,64.0,53.4,30.18,ESE,110,0.0,7.6,68,0.00,,,0.00,WUHU216PEETBRO,2013-03-31 07:50:00,
2013-03-31 03:55:00,64.0,53.6,30.18,South,170,0.0,7.6,69,0.00,,,0.00,WUHU216PEETBRO,2013-03-31 07:55:00,
2013-03-31 04:00:00,63.8,53.5,30.18,SE,136,0.0,5.2,69,0.00,,,0.00,WUHU216PEETBRO,2013-03-31 08:00:00,
2013-03-31 04:05:00,63.7,53.6,30.18,SSE,153,4.6,5.2,69,0.00,,,0.00,WUHU216PEETBRO,2013-03-31 08:05:00,
2013-03-31 04:10:00,63.7,53.6,30.17,SE,136,0.0,5.0,69,0.00,,,0.00,WUHU216PEETBRO,2013-03-31 08:10:00,
2013-03-31 04:15:00,63.7,53.9,30.17,SE,142,0.0,6.1,70,0.00,,,0.00,WUHU216PEETBRO,2013-03-31 08:15:00,
2013-03-31 04:20:00,63.7,53.9,30.17,East,101,0.0,6.1,70,0.00,,,0.00,WUHU216PEETBRO,2013-03-31 08:20:00,
2013-03-31 04:25:00,63.7,54.0,30.17,SE,141,0.0,5.7,70,0.00,,,0.00,WUHU216PEETBRO,2013-03-31 08:25:00,
2013-03-31 04:30:00,63.7,54.3,30.17,SSE,153,0.0,5.7,71,0.00,,,0.00,WUHU216PEETBRO,2013-03-31 08:30:00,
2013-03-31 04:35:00,63.6,54.3,30.17,SSE,153,0.0,2.9,71,0.00,,,0.00,WUHU216PEETBRO,2013-03-31 08:35:00,
2013-03-31 04:40:00,63.7,54.5,30.17,East,81,3.4,6.8,72,0.00,,,0.00,WUHU216PEETBRO,2013-03-31 08:40:00,
2013-03-31 04:45:00,63.6,54.4,30.17,SE,131,5.5,7.3,72,0.00,,,0.00,WUHU216PEETBRO,2013-03-31 08:45:00,
2013-03-31 04:50:00,63.6,54.5,30.17,SSE,151,0.0,7.3,72,0.00,,,0.00,WUHU216PEETBRO,2013-03-31 08:50:00,
2013-03-31 04:55:00,63.7,54.6,30.17,SSE,151,0.0,5.6,72,0.00,,,0.00,WUHU216PEETBRO,2013-03-31 08:55:00,
2013-03-31 05:00:00,63.6,54.7,30.17,SSE,149,7.1,7.1,72,0.00,,,0.00,WUHU216PEETBRO,2013-03-31 09:00:00,
2013-03-31 05:05:00,63.6,54.7,30.17,SE,129,0.0,7.1,73,0.00,,,0.00,WUHU216PEETBRO,2013-03-31 09:05:00,
2013-03-31 05:10:00,63.6,54.8,30.17,SSE,149,0.0,6.9,73,0.00,,,0.00,WUHU216PEETBRO,2013-03-31 09:10:00,
2013-03-31 05:15:00,63.4,54.7,30.17,SSE,149,5.5,6.9,73,0.00,,,0.00,WUHU216PEETBRO,2013-03-31 09:15:00,
2013-03-31 05:20:00,63.6,55.0,30.16,ESE,122,3.2,6.2,73,0.00,,,0.00,WUHU216PEETBRO,2013-03-31 09:20:00,
2013-03-31 05:25:00,63.6,55.0,30.16,SE,145,4.4,7.4,73,0.00,,,0.00,WUHU216PEETBRO,2013-03-31 09:25:00,
2013-03-31 05:30:00,63.6,55.0,30.17,ESE,122,0.0,7.8,73,0.00,,,0.00,WUHU216PEETBRO,2013-03-31 09:30:00,
2013-03-31 05:35:00,63.5,54.9,30.17,ESE,103,0.0,7.8,73,0.00,,,0.00,WUHU216PEETBRO,2013-03-31 09:35:00,
2013-03-31 05:40:00,63.6,55.0,30.17,SSE,149,5.2,6.0,73,0.00,,,0.00,WUHU216PEETBRO,2013-03-31 09:40:00,
2013-03-31 05:45:00,63.5,55.0,30.17,East,100,5.2,7.5,73,0.00,,,0.00,WUHU216PEETBRO,2013-03-31 09:45:00,
2013-03-31 05:50:00,63.4,54.9,30.16,South,173,5.0,7.5,73,0.00,,,0.00,WUHU216PEETBRO,2013-03-31 09:50:00,
2013-03-31 05:55:00,63.4,55.0,30.17,South,187,7.9,9.8,74,0.00,,,0.00,WUHU216PEETBRO,2013-03-31 09:55:00,
2013-03-31 06:00:00,63.3,55.0,30.17,ESE,117,6.1,9.8,74,0.00,,,0.00,WUHU216PEETBRO,2013-03-31 10:00:00,
2013-03-31 06:05:00,63.2,55.0,30.17,South,189,7.8,7.9,74,0.00,,,0.00,WUHU216PEETBRO,2013-03-31 10:05:00,
2013-03-31 06:10:00,63.1,54.9,30.17,SE,136,6.0,7.9,74,0.00,,,0.00,WUHU216PEETBRO,2013-03-31 10:10:00,
2013-03-31 06:15:00,63.1,55.0,30.18,SSE,158,0.0,7.1,75,0.00,,,0.00,WUHU216PEETBRO,2013-03-31 10:15:00,
2013-03-31 06:20:00,63.0,55.0,30.18,SSE,158,0.0,7.1,75,0.00,,,0.00,WUHU216PEETBRO,2013-03-31 10:20:00,
2013-03-31 06:25:00,62.9,55.0,30.19,SSE,158,0.0,0.0,75,0.00,,,0.00,WUHU216PEETBRO,2013-03-31 10:25:00,
2013-03-31 06:30:00,62.8,55.1,30.19,SSE,158,0.0,0.0,76,0.00,,,0.00,WUHU216PEETBRO,2013-03-31 10:30:00,
2013-03-31 06:35:00,62.8,55.1,30.19,SE,139,0.0,4.8,76,0.00,,,0.00,WUHU216PEETBRO,2013-03-31 10:35:00,
2013-03-31 06:40:00,62.9,55.3,30.19,SE,143,0.0,4.8,76,0.00,,,0.00,WUHU216PEETBRO,2013-03-31 10:40:00,
2013-03-31 06:45:00,62.8,55.3,30.19,SE,135,0.0,3.5,76,0.00,,,0.00,WUHU216PEETBRO,2013-03-31 10:45:00,
2013-03-31 06:50:00,62.7,55.2,30.19,SSE,155,0.0,3.4,76,0.00,,,0.00,WUHU216PEETBRO,2013-03-31 10:50:00,
2013-03-31 06:55:00,62.7,55.3,30.19,SSE,160,0.0,4.2,77,0.00,,,0.00,WUHU216PEETBRO,2013-03-31 10:55:00,
2013-03-31 07:00:00,62.5,55.2,30.19,SSE,160,0.0,4.2,77,0.00,,,0.00,WUHU216PEETBRO,2013-03-31 11:00:00,
2013-03-31 07:05:00,62.5,55.5,30.19,East,80,0.0,6.0,78,0.00,,,0.00,WUHU216PEETBRO,2013-03-31 11:05:00,
2013-03-31 07:10:00,62.5,55.5,30.19,East,80,0.0,6.0,78,0.00,,,0.00,WUHU216PEETBRO,2013-03-31 11:10:00,
2013-03-31 07:15:00,62.3,55.4,30.20,South,177,0.0,5.6,78,0.00,,,0.00,WUHU216PEETBRO,2013-03-31 11:15:00,
2013-03-31 07:20:00,62.4,55.6,30.20,East,91,0.0,5.6,78,0.00,,,0.00,WUHU216PEETBRO,2013-03-31 11:20:00,
2013-03-31 07:25:00,62.2,55.5,30.20,East,91,0.0,3.2,78,0.00,,,0.00,WUHU216PEETBRO,2013-03-31 11:25:00,
2013-03-31 07:30:00,62.3,55.7,30.20,East,91,0.0,0.0,79,0.00,,,0.00,WUHU216PEETBRO,2013-03-31 11:30:00,
2013-03-31 07:35:00,62.3,55.7,30.20,East,91,0.0,0.0,79,0.00,,,0.00,WUHU216PEETBRO,2013-03-31 11:35:00,
2013-03-31 07:40:00,62.2,55.7,30.20,ESE,104,0.0,3.1,79,0.00,,,0.00,WUHU216PEETBRO,2013-03-31 11:40:00,
2013-03-31 07:45:00,62.3,55.8,30.21,ESE,104,0.0,3.1,79,0.00,,,0.00,WUHU216PEETBRO,2013-03-31 11:45:00,
2013-03-31 07:50:00,62.4,56.0,30.21,ESE,104,0.0,0.0,79,0.00,,,0.00,WUHU216PEETBRO,2013-03-31 11:50:00,
2013-03-31 07:56:00,62.5,56.1,30.21,ESE,104,0.0,0.0,79,0.00,,,0.00,WUHU216PEETBRO,2013-03-31 11:56:00,
2013-03-31 08:00:00,62.5,56.1,30.21,South,169,0.0,0.0,79,0.00,,,0.00,WUHU216PEETBRO,2013-03-31 12:00:00,
2013-03-31 08:05:00,62.6,56.2,30.22,South,169,0.0,0.0,79,0.00,,,0.00,WUHU216PEETBRO,2013-03-31 12:05:00,
2013-03-31 08:10:00,62.9,56.4,30.22,South,169,0.0,0.0,79,0.00,,,0.00,WUHU216PEETBRO,2013-03-31 12:10:00,
2013-03-31 08:15:00,62.9,56.4,30.22,SSE,148,3.5,6.2,79,0.00,,,0.00,WUHU216PEETBRO,2013-03-31 12:15:00,
2013-03-31 08:20:00,63.1,56.6,30.22,South,186,4.7,6.2,79,0.00,,,0.00,WUHU216PEETBRO,2013-03-31 12:20:00,
2013-03-31 08:25:00,63.3,56.7,30.21,SE,146,0.0,5.5,79,0.00,,,0.00,WUHU216PEETBRO,2013-03-31 12:25:00,
2013-03-31 08:30:00,63.4,56.7,30.22,SE,146,5.1,6.3,79,0.00,,,0.00,WUHU216PEETBRO,2013-03-31 12:30:00,
2013-03-31 08:35:00,63.8,56.9,30.22,South,180,5.7,7.0,78,0.00,,,0.00,WUHU216PEETBRO,2013-03-31 12:35:00,
2013-03-31 08:40:00,64.3,57.0,30.22,SSE,159,4.8,7.8,77,0.00,,,0.00,WUHU216PEETBRO,2013-03-31 12:40:00,
2013-03-31 08:45:00,64.7,56.9,30.21,SSE,159,0.0,7.8,75,0.00,,,0.00,WUHU216PEETBRO,2013-03-31 12:45:00,
2013-03-31 08:50:00,64.6,56.7,30.21,SSW,203,0.0,9.1,75,0.00,,,0.00,WUHU216PEETBRO,2013-03-31 12:50:00,
2013-03-31 08:55:00,64.7,57.0,30.21,SE,143,0.0,9.1,76,0.00,,,0.00,WUHU216PEETBRO,2013-03-31 12:55:00,
2013-03-31 09:00:00,64.7,57.0,30.21,SSE,162,0.0,8.3,76,0.00,,,0.00,WUHU216PEETBRO,2013-03-31 13:00:00,
2013-03-31 09:05:00,65.1,57.3,30.21,SE,145,0.0,7.2,76,0.00,,,0.00,WUHU216PEETBRO,2013-03-31 13:05:00,
2013-03-31 09:10:00,65.6,57.3,30.21,SSE,151,2.6,7.2,74,0.00,,,0.00,WUHU216PEETBRO,2013-03-31 13:10:00,
2013-03-31 09:15:00,66.3,56.9,30.21,SSW,213,2.7,5.9,71,0.00,,,0.00,WUHU216PEETBRO,2013-03-31 13:15:00,
2013-03-31 09:20:00,66.8,57.0,30.22,SE,134,4.1,8.9,70,0.00,,,0.00,WUHU216PEETBRO,2013-03-31 13:20:00,
2013-03-31 09:25:00,67.1,56.6,30.21,South,172,6.0,10.9,69,0.00,,,0.00,WUHU216PEETBRO,2013-03-31 13:25:00,
2013-03-31 09:30:00,67.8,57.0,30.21,SW,217,5.5,10.9,68,0.00,,,0.00,WUHU216PEETBRO,2013-03-31 13:30:00,
2013-03-31 09:35:00,68.1,56.5,30.21,SE,142,0.0,10.7,66,0.00,,,0.00,WUHU216PEETBRO,2013-03-31 13:35:00,
2013-03-31 09:40:00,68.4,56.6,30.21,SSE,166,3.4,10.7,66,0.00,,,0.00,WUHU216PEETBRO,2013-03-31 13:40:00,
2013-03-31 09:45:00,68.7,56.6,30.21,WSW,238,2.2,10.4,65,0.00,,,0.00,WUHU216PEETBRO,2013-03-31 13:45:00,
2013-03-31 09:51:00,69.4,56.1,30.21,SSW,211,5.7,8.6,62,0.00,,,0.00,WUHU216PEETBRO,2013-03-31 13:51:00,
2013-03-31 09:56:00,69.4,55.3,30.21,SSE,167,6.1,10.5,60,0.00,,,0.00,WUHU216PEETBRO,2013-03-31 13:56:00,
2013-03-31 10:01:00,69.6,55.5,30.21,South,172,3.2,11.2,60,0.00,,,0.00,WUHU216PEETBRO,2013-03-31 14:01:00,
2013-03-31 10:06:00,69.9,55.2,30.21,SSE,155,7.0,11.2,59,0.00,,,0.00,WUHU216PEETBRO,2013-03-31 14:06:00,
2013-03-31 10:11:00,69.9,53.7,30.20,SSE,156,9.6,13.7,56,0.00,,,0.00,WUHU216PEETBRO,2013-03-31 14:11:00,
2013-03-31 10:16:00,70.1,54.7,30.20,SSE,156,4.3,13.7,58,0.00,,,0.00,WUHU216PEETBRO,2013-03-31 14:16:00,
2013-03-31 10:21:00,70.3,54.2,30.20,South,183,4.3,14.4,56,0.00,,,0.00,WUHU216PEETBRO,2013-03-31 14:21:00,
2013-03-31 10:26:00,70.4,54.2,30.20,SSW,194,3.4,14.4,56,0.00,,,0.00,WUHU216PEETBRO,2013-03-31 14:26:00,
2013-03-31 10:31:00,71.0,53.8,30.20,SSE,155,6.4,12.9,54,0.00,,,0.00,WUHU216PEETBRO,2013-03-31 14:31:00,
2013-03-31 10:37:00,71.5,53.6,30.20,South,173,9.0,12.9,53,0.00,,,0.00,WUHU216PEETBRO,2013-03-31 14:37:00,
2013-03-31 10:41:00,71.5,53.7,30.20,SSE,158,5.8,12.5,53,0.00,,,0.00,WUHU216PEETBRO,2013-03-31 14:41:00,
2013-03-31 10:46:00,72.1,52.7,30.20,ESE,119,6.1,12.3,50,0.00,,,0.00,WUHU216PEETBRO,2013-03-31 14:46:00,
2013-03-31 10:51:00,72.0,52.5,30.20,SSE,148,6.7,12.1,50,0.00,,,0.00,WUHU216PEETBRO,2013-03-31 14:51:00,
2013-03-31 10:56:00,72.1,52.6,30.20,South,186,5.5,12.1,50,0.00,,,0.00,WUHU216PEETBRO,2013-03-31 14:56:00,
2013-03-31 11:01:00,72.3,52.6,30.19,SSE,166,8.5,12.8,50,0.00,,,0.00,WUHU216PEETBRO,2013-03-31 15:01:00,
2013-03-31 11:07:00,72.8,52.1,30.20,South,176,8.0,12.8,48,0.00,,,0.00,WUHU216PEETBRO,2013-03-31 15:07:00,
2013-03-31 11:12:00,73.3,52.6,30.19,South,180,13.4,13.4,48,0.00,,,0.00,WUHU216PEETBRO,2013-03-31 15:12:00,
2013-03-31 11:17:00,73.6,52.0,30.20,SSW,199,5.8,13.4,47,0.00,,,0.00,WUHU216PEETBRO,2013-03-31 15:17:00,
2013-03-31 11:22:00,73.9,52.4,30.19,SSW,196,7.1,11.7,47,0.00,,,0.00,WUHU216PEETBRO,2013-03-31 15:22:00,
2013-03-31 11:27:00,74.0,51.3,30.19,SSE,166,10.4,10.4,45,0.00,,,0.00,WUHU216PEETBRO,2013-03-31 15:27:00,
2013-03-31 11:32:00,73.9,52.1,30.19,ESE,119,11.4,11.4,46,0.00,,,0.00,WUHU216PEETBRO,2013-03-31 15:32:00,
2013-03-31 11:37:00,73.8,51.7,30.19,SSE,151,8.7,12.6,46,0.00,,,0.00,WUHU216PEETBRO,2013-03-31 15:37:00,
2013-03-31 11:42:00,74.1,52.2,30.19,South,179,5.7,12.6,46,0.00,,,0.00,WUHU216PEETBRO,2013-03-31 15:42:00,
2013-03-31 11:47:00,74.2,51.9,30.19,SE,129,5.5,14.4,46,0.00,,,0.00,WUHU216PEETBRO,2013-03-31 15:47:00,
2013-03-31 11:52:00,74.3,52.2,30.19,South,175,2.5,14.4,46,0.00,,,0.00,WUHU216PEETBRO,2013-03-31 15:52:00,
2013-03-31 11:57:00,74.6,52.2,30.18,SSE,163,6.4,15.3,46,0.00,,,0.00,WUHU216PEETBRO,2013-03-31 15:57:00,
2013-03-31 12:02:00,74.7,51.7,30.18,SSW,206,7.3,15.3,45,0.00,,,0.00,WUHU216PEETBRO,2013-03-31 16:02:00,
2013-03-31 12:07:00,75.1,52.1,30.18,South,183,7.1,13.8,45,0.00,,,0.00,WUHU216PEETBRO,2013-03-31 16:07:00,
2013-03-31 12:12:00,75.3,51.5,30.19,South,190,11.4,13.0,44,0.00,,,0.00,WUHU216PEETBRO,2013-03-31 16:12:00,
2013-03-31 12:17:00,75.1,51.4,30.18,South,182,10.5,13.8,44,0.00,,,0.00,WUHU216PEETBRO,2013-03-31 16:17:00,
2013-03-31 12:22:00,75.7,52.2,30.18,South,180,7.8,13.8,44,0.00,,,0.00,WUHU216PEETBRO,2013-03-31 16:22:00,
2013-03-31 12:27:00,75.7,51.4,30.18,South,173,5.4,12.9,43,0.00,,,0.00,WUHU216PEETBRO,2013-03-31 16:27:00,
2013-03-31 12:32:00,76.3,51.5,30.18,South,187,6.5,13.1,42,0.00,,,0.00,WUHU216PEETBRO,2013-03-31 16:32:00,
2013-03-31 12:37:00,76.6,50.0,30.18,South,175,7.8,13.1,39,0.00,,,0.00,WUHU216PEETBRO,2013-03-31 16:37:00,
2013-03-31 12:42:00,77.0,51.3,30.18,South,172,4.2,11.9,41,0.00,,,0.00,WUHU216PEETBRO,2013-03-31 16:42:00,
2013-03-31 12:47:00,76.8,51.2,30.17,NE,53,8.3,13.2,41,0.00,,,0.00,WUHU216PEETBRO,2013-03-31 16:47:00,
2013-03-31 12:52:00,76.6,50.5,30.17,SE,139,12.4,14.0,40,0.00,,,0.00,WUHU216PEETBRO,2013-03-31 16:52:00,
2013-03-31 12:57:00,76.0,51.6,30.17,SSE,160,7.5,16.1,43,0.00,,,0.00,WUHU216PEETBRO,2013-03-31 16:57:00,
2013-03-31 13:02:00,76.3,51.3,30.17,South,189,8.5,16.1,42,0.00,,,0.00,WUHU216PEETBRO,2013-03-31 17:02:00,
2013-03-31 13:07:00,76.7,51.5,30.16,South,180,7.8,12.8,42,0.00,,,0.00,WUHU216PEETBRO,2013-03-31 17:07:00,
2013-03-31 13:12:00,76.8,51.8,30.16,South,191,5.2,12.8,42,0.00,,,0.00,WUHU216PEETBRO,2013-03-31 17:12:00,
2013-03-31 13:17:00,77.8,51.6,30.16,SE,135,4.5,15.2,40,0.00,,,0.00,WUHU216PEETBRO,2013-03-31 17:17:00,
2013-03-31 13:22:00,77.7,50.9,30.15,SSE,163,11.7,15.7,39,0.00,,,0.00,WUHU216PEETBRO,2013-03-31 17:22:00,
2013-03-31 13:27:00,77.4,51.6,30.15,SW,224,7.6,15.7,41,0.00,,,0.00,WUHU216PEETBRO,2013-03-31 17:27:00,
2013-03-31 13:33:00,78.0,51.1,30.15,South,184,9.9,12.1,39,0.00,,,0.00,WUHU216PEETBRO,2013-03-31 17:33:00,
2013-03-31 13:38:00,77.8,50.8,30.14,South,179,8.1,14.9,39,0.00,,,0.00,WUHU216PEETBRO,2013-03-31 17:38:00,
2013-03-31 13:43:00,78.0,50.0,30.14,ESE,107,10.6,14.9,38,0.00,,,0.00,WUHU216PEETBRO,2013-03-31 17:43:00,
2013-03-31 13:48:00,78.2,50.3,30.14,SSW,199,7.4,18.6,38,0.00,,,0.00,WUHU216PEETBRO,2013-03-31 17:48:00,
2013-03-31 13:53:00,78.3,49.2,30.14,South,187,6.8,18.6,36,0.00,,,0.00,WUHU216PEETBRO,2013-03-31 17:53:00,
2013-03-31 13:58:00,78.2,49.1,30.14,SSW,204,8.0,17.6,36,0.00,,,0.00,WUHU216PEETBRO,2013-03-31 17:58:00,
2013-03-31 14:03:00,78.8,48.8,30.14,West,268,4.7,17.6,35,0.00,,,0.00,WUHU216PEETBRO,2013-03-31 18:03:00,
2013-03-31 14:08:00,79.0,48.7,30.14,SE,135,8.7,15.3,35,0.00,,,0.00,WUHU216PEETBRO,2013-03-31 18:08:00,
2013-03-31 14:13:00,78.9,49.7,30.13,SSW,199,8.2,16.0,36,0.00,,,0.00,WUHU216PEETBRO,2013-03-31 18:13:00,
2013-03-31 14:18:00,79.0,50.0,30.13,SSE,165,4.7,12.7,37,0.00,,,0.00,WUHU216PEETBRO,2013-03-31 18:18:00,
2013-03-31 14:23:00,78.8,49.2,30.13,SSE,153,14.3,15.2,36,0.00,,,0.00,WUHU216PEETBRO,2013-03-31 18:23:00,
2013-03-31 14:28:00,78.9,49.8,30.12,SSE,148,7.5,15.2,36,0.00,,,0.00,WUHU216PEETBRO,2013-03-31 18:28:00,
2013-03-31 14:33:00,79.4,50.3,30.12,SSE,153,0.0,14.7,36,0.00,,,0.00,WUHU216PEETBRO,2013-03-31 18:33:00,
2013-03-31 14:38:00,79.4,49.0,30.12,SSE,159,13.2,14.9,35,0.00,,,0.00,WUHU216PEETBRO,2013-03-31 18:38:00,
2013-03-31 14:43:00,79.4,48.8,30.11,SSW,200,6.5,14.9,35,0.00,,,0.00,WUHU216PEETBRO,2013-03-31 18:43:00,
2013-03-31 14:48:00,79.4,46.0,30.11,WSW,242,8.5,18.1,31,0.00,,,0.00,WUHU216PEETBRO,2013-03-31 18:48:00,
2013-03-31 14:53:00,79.4,47.7,30.11,SSW,211,9.7,18.1,33,0.00,,,0.00,WUHU216PEETBRO,2013-03-31 18:53:00,
2013-03-31 14:58:00,79.3,48.8,30.11,SSW,203,8.4,15.8,35,0.00,,,0.00,WUHU216PEETBRO,2013-03-31 18:58:00,
2013-03-31 15:03:00,79.8,48.9,30.11,SE,136,7.2,13.3,34,0.00,,,0.00,WUHU216PEETBRO,2013-03-31 19:03:00,
2013-03-31 15:08:00,80.0,48.7,30.10,SE,131,4.4,13.3,34,0.00,,,0.00,WUHU216PEETBRO,2013-03-31 19:08:00,
2013-03-31 15:13:00,79.8,49.0,30.10,SE,134,6.5,20.0,34,0.00,,,0.00,WUHU216PEETBRO,2013-03-31 19:13:00,
2013-03-31 15:18:00,79.2,49.2,30.10,SE,135,8.5,20.0,35,0.00,,,0.00,WUHU216PEETBRO,2013-03-31 19:18:00,
2013-03-31 15:23:00,78.7,49.4,30.10,SSW,199,6.5,15.7,36,0.00,,,0.00,WUHU216PEETBRO,2013-03-31 19:23:00,
2013-03-31 15:28:00,79.5,48.0,30.09,ESE,108,5.1,14.5,33,0.00,,,0.00,WUHU216PEETBRO,2013-03-31 19:28:00,
2013-03-31 15:33:00,80.3,48.6,30.09,SSE,159,8.9,11.6,33,0.00,,,0.00,WUHU216PEETBRO,2013-03-31 19:33:00,
2013-03-31 15:38:00,80.4,47.8,30.09,SSE,152,7.8,18.0,32,0.00,,,0.00,WUHU216PEETBRO,2013-03-31 19:38:00,
2013-03-31 15:43:00,79.9,48.2,30.09,South,184,11.7,18.0,33,0.00,,,0.00,WUHU216PEETBRO,2013-03-31 19:43:00,
2013-03-31 15:48:00,79.7,48.6,30.09,South,187,8.8,17.5,34,0.00,,,0.00,WUHU216PEETBRO,2013-03-31 19:48:00,
2013-03-31 15:53:00,79.5,49.1,30.09,SSE,156,6.8,14.0,35,0.00,,,0.00,WUHU216PEETBRO,2013-03-31 19:53:00,
2013-03-31 15:58:00,79.8,48.4,30.08,SSE,162,8.3,14.0,34,0.00,,,0.00,WUHU216PEETBRO,2013-03-31 19:58:00,
2013-03-31 16:03:00,80.3,47.7,30.08,South,170,7.8,13.7,32,0.00,,,0.00,WUHU216PEETBRO,2013-03-31 20:03:00,
2013-03-31 16:08:00,80.0,47.3,30.07,ESE,105,6.3,15.1,32,0.00,,,0.00,WUHU216PEETBRO,2013-03-31 20:08:00,
2013-03-31 16:13:00,80.3,47.9,30.06,SSE,166,3.5,15.1,32,0.00,,,0.00,WUHU216PEETBRO,2013-03-31 20:13:00,
2013-03-31 16:18:00,80.5,47.7,30.06,South,186,11.2,13.6,32,0.00,,,0.00,WUHU216PEETBRO,2013-03-31 20:18:00,
2013-03-31 16:23:00,80.3,47.4,30.06,SE,136,4.7,15.7,32,0.00,,,0.00,WUHU216PEETBRO,2013-03-31 20:23:00,
2013-03-31 16:28:00,80.1,47.8,30.06,SSE,156,9.3,15.7,32,0.00,,,0.00,WUHU216PEETBRO,2013-03-31 20:28:00,
2013-03-31 16:34:00,80.0,48.3,30.06,SSE,151,8.5,15.4,33,0.00,,,0.00,WUHU216PEETBRO,2013-03-31 20:34:00,
2013-03-31 16:39:00,79.8,48.6,30.06,SSE,156,11.1,15.4,34,0.00,,,0.00,WUHU216PEETBRO,2013-03-31 20:39:00,
2013-03-31 16:44:00,79.8,48.4,30.06,South,179,6.6,15.4,34,0.00,,,0.00,WUHU216PEETBRO,2013-03-31 20:44:00,
2013-03-31 16:49:00,80.0,48.8,30.06,South,170,4.3,13.3,34,0.00,,,0.00,WUHU216PEETBRO,2013-03-31 20:49:00,
2013-03-31 16:54:00,80.2,49.2,30.06,SE,128,8.7,10.8,34,0.00,,,0.00,WUHU216PEETBRO,2013-03-31 20:54:00,
2013-03-31 16:59:00,80.2,49.2,30.05,SSE,160,11.1,12.1,34,0.00,,,0.00,WUHU216PEETBRO,2013-03-31 20:59:00,
2013-03-31 17:04:00,80.0,49.0,30.05,SSE,162,13.0,14.2,34,0.00,,,0.00,WUHU216PEETBRO,2013-03-31 21:04:00,
2013-03-31 17:09:00,79.8,49.3,30.05,South,172,6.5,14.2,35,0.00,,,0.00,WUHU216PEETBRO,2013-03-31 21:09:00,
2013-03-31 17:14:00,79.7,49.3,30.05,SSE,160,10.2,14.3,35,0.00,,,0.00,WUHU216PEETBRO,2013-03-31 21:14:00,
2013-03-31 17:19:00,79.7,49.6,30.05,ESE,110,6.0,14.3,35,0.00,,,0.00,WUHU216PEETBRO,2013-03-31 21:19:00,
2013-03-31 17:24:00,79.7,49.3,30.05,SSW,197,7.8,13.0,35,0.00,,,0.00,WUHU216PEETBRO,2013-03-31 21:24:00,
2013-03-31 17:29:00,79.7,49.5,30.05,SSE,162,7.0,14.1,35,0.00,,,0.00,WUHU216PEETBRO,2013-03-31 21:29:00,
2013-03-31 17:34:00,79.8,49.4,30.05,SSE,149,7.6,14.1,35,0.00,,,0.00,WUHU216PEETBRO,2013-03-31 21:34:00,
2013-03-31 17:39:00,80.0,49.2,30.05,SSE,160,9.3,14.5,34,0.00,,,0.00,WUHU216PEETBRO,2013-03-31 21:39:00,
2013-03-31 17:44:00,80.1,49.8,30.05,SSE,156,5.6,14.5,35,0.00,,,0.00,WUHU216PEETBRO,2013-03-31 21:44:00,
2013-03-31 17:49:00,80.1,49.5,30.05,South,184,8.9,13.3,35,0.00,,,0.00,WUHU216PEETBRO,2013-03-31 21:49:00,
2013-03-31 17:54:00,80.3,49.6,30.05,SSW,197,0.0,13.3,35,0.00,,,0.00,WUHU216PEETBRO,2013-03-31 21:54:00,
2013-03-31 17:59:00,80.2,49.8,30.05,SE,139,5.1,13.7,35,0.00,,,0.00,WUHU216PEETBRO,2013-03-31 21:59:00,
2013-03-31 18:04:00,80.4,49.6,30.05,South,173,5.2,15.3,34,0.00,,,0.00,WUHU216PEETBRO,2013-03-31 22:04:00,
2013-03-31 18:09:00,80.4,49.6,30.05,SSE,166,7.6,15.3,34,0.00,,,0.00,WUHU216PEETBRO,2013-03-31 22:09:00,
2013-03-31 18:14:00,80.4,49.3,30.05,SE,124,8.8,13.9,34,0.00,,,0.00,WUHU216PEETBRO,2013-03-31 22:14:00,
2013-03-31 18:19:00,80.4,49.7,30.05,South,183,5.4,10.2,35,0.00,,,0.00,WUHU216PEETBRO,2013-03-31 22:19:00,
2013-03-31 18:24:00,80.3,49.2,30.05,South,183,6.1,11.3,34,0.00,,,0.00,WUHU216PEETBRO,2013-03-31 22:24:00,
2013-03-31 18:29:00,80.6,49.6,30.05,SE,134,2.9,11.3,34,0.00,,,0.00,WUHU216PEETBRO,2013-03-31 22:29:00,
2013-03-31 18:34:00,80.8,49.7,30.05,South,170,4.8,8.6,34,0.00,,,0.00,WUHU216PEETBRO,2013-03-31 22:34:00,
2013-03-31 18:39:00,80.7,49.9,30.05,South,187,10.4,10.4,34,0.00,,,0.00,WUHU216PEETBRO,2013-03-31 22:39:00,
2013-03-31 18:44:00,80.5,49.9,30.05,NE,40,4.9,10.4,35,0.00,,,0.00,WUHU216PEETBRO,2013-03-31 22:44:00,
2013-03-31 18:49:00,80.4,50.3,30.05,SE,136,0.0,13.0,35,0.00,,,0.00,WUHU216PEETBRO,2013-03-31 22:49:00,
2013-03-31 18:54:00,80.3,50.4,30.05,SSW,194,7.9,13.0,36,0.00,,,0.00,WUHU216PEETBRO,2013-03-31 22:54:00,
2013-03-31 18:59:00,80.3,50.4,30.05,SSE,153,7.8,11.3,36,0.00,,,0.00,WUHU216PEETBRO,2013-03-31 22:59:00,
2013-03-31 19:04:00,80.1,50.5,30.04,South,172,7.0,11.3,36,0.00,,,0.00,WUHU216PEETBRO,2013-03-31 23:04:00,
2013-03-31 19:09:00,80.0,50.9,30.04,SE,134,5.8,10.9,37,0.00,,,0.00,WUHU216PEETBRO,2013-03-31 23:09:00,
2013-03-31 19:14:00,79.8,51.0,30.04,SE,125,8.6,10.3,37,0.00,,,0.00,WUHU216PEETBRO,2013-03-31 23:14:00,
2013-03-31 19:19:00,79.7,51.2,30.04,SSE,153,3.2,9.6,37,0.00,,,0.00,WUHU216PEETBRO,2013-03-31 23:19:00,
2013-03-31 19:24:00,79.7,51.3,30.04,SSE,160,5.1,9.5,37,0.00,,,0.00,WUHU216PEETBRO,2013-03-31 23:24:00,
2013-03-31 19:29:00,79.4,51.2,30.05,SSE,151,0.0,9.5,38,0.00,,,0.00,WUHU216PEETBRO,2013-03-31 23:29:00,
2013-03-31 19:34:00,79.3,51.2,30.05,ESE,119,2.7,8.4,38,0.00,,,0.00,WUHU216PEETBRO,2013-03-31 23:34:00,
2013-03-31 19:39:00,79.1,51.2,30.05,SSE,156,5.8,6.5,38,0.00,,,0.00,WUHU216PEETBRO,2013-03-31 23:39:00,
2013-03-31 19:44:00,78.8,51.2,30.05,SSE,163,0.0,5.8,38,0.00,,,0.00,WUHU216PEETBRO,2013-03-31 23:44:00,
2013-03-31 19:49:00,78.7,51.4,30.05,SSE,163,0.0,3.4,39,0.00,,,0.00,WUHU216PEETBRO,2013-03-31 23:49:00,
2013-03-31 19:54:00,78.3,51.3,30.05,SSE,163,0.0,0.0,39,0.00,,,0.00,WUHU216PEETBRO,2013-03-31 23:54:00,
2013-03-31 19:59:00,78.0,51.2,30.05,SSE,163,0.0,0.0,39,0.00,,,0.00,WUHU216PEETBRO,2013-03-31 23:59:00,
2013-03-31 20:04:00,77.8,51.0,30.05,SSE,163,0.0,0.0,39,0.00,,,0.00,WUHU216PEETBRO,2013-04-01 00:04:00,
2013-03-31 20:09:00,77.4,50.8,30.05,SSE,163,0.0,0.0,40,0.00,,,0.00,WUHU216PEETBRO,2013-04-01 00:09:00,
2013-03-31 20:14:00,77.3,50.9,30.05,SSE,163,0.0,0.0,40,0.00,,,0.00,WUHU216PEETBRO,2013-04-01 00:14:00,
2013-03-31 20:19:00,77.0,50.7,30.05,SSE,163,0.0,0.0,40,0.00,,,0.00,WUHU216PEETBRO,2013-04-01 00:19:00,
2013-03-31 20:24:00,76.7,50.7,30.05,SSE,163,0.0,0.0,40,0.00,,,0.00,WUHU216PEETBRO,2013-04-01 00:24:00,
2013-03-31 20:29:00,76.5,50.7,30.05,SSE,163,0.0,0.0,41,0.00,,,0.00,WUHU216PEETBRO,2013-04-01 00:29:00,
2013-03-31 20:34:00,76.2,50.6,30.05,SSE,163,0.0,0.0,41,0.00,,,0.00,WUHU216PEETBRO,2013-04-01 00:34:00,
2013-03-31 20:39:00,76.0,50.7,30.05,SSE,163,0.0,0.0,41,0.00,,,0.00,WUHU216PEETBRO,2013-04-01 00:39:00,
2013-03-31 20:44:00,75.8,50.7,30.05,SSE,163,0.0,0.0,42,0.00,,,0.00,WUHU216PEETBRO,2013-04-01 00:44:00,
2013-03-31 20:49:00,75.6,50.6,30.05,SSE,163,0.0,0.0,42,0.00,,,0.00,WUHU216PEETBRO,2013-04-01 00:49:00,
2013-03-31 20:54:00,75.4,50.6,30.05,SSE,163,0.0,0.0,42,0.00,,,0.00,WUHU216PEETBRO,2013-04-01 00:54:00,
2013-03-31 20:59:00,75.3,50.8,30.05,SSE,163,0.0,0.0,42,0.00,,,0.00,WUHU216PEETBRO,2013-04-01 00:59:00,
2013-03-31 21:04:00,75.2,50.9,30.05,SSE,163,0.0,0.0,43,0.00,,,0.00,WUHU216PEETBRO,2013-04-01 01:04:00,
2013-03-31 21:09:00,75.1,50.9,30.05,SSE,163,0.0,0.0,43,0.00,,,0.00,WUHU216PEETBRO,2013-04-01 01:09:00,
2013-03-31 21:14:00,74.9,50.9,30.05,SSE,163,0.0,0.0,43,0.00,,,0.00,WUHU216PEETBRO,2013-04-01 01:14:00,
2013-03-31 21:19:00,74.8,51.3,30.05,SSE,163,0.0,0.0,44,0.00,,,0.00,WUHU216PEETBRO,2013-04-01 01:19:00,
2013-03-31 21:24:00,74.6,51.4,30.05,SSE,163,0.0,0.0,44,0.00,,,0.00,WUHU216PEETBRO,2013-04-01 01:24:00,
2013-03-31 21:29:00,74.3,51.6,30.05,SSE,163,0.0,0.0,45,0.00,,,0.00,WUHU216PEETBRO,2013-04-01 01:29:00,
2013-03-31 21:34:00,74.0,51.8,30.05,SSE,163,0.0,0.0,46,0.00,,,0.00,WUHU216PEETBRO,2013-04-01 01:34:00,
2013-03-31 21:39:00,73.8,52.2,30.05,SSE,163,0.0,0.0,47,0.00,,,0.00,WUHU216PEETBRO,2013-04-01 01:39:00,
2013-03-31 21:44:00,73.4,52.2,30.06,SSE,163,0.0,0.0,47,0.00,,,0.00,WUHU216PEETBRO,2013-04-01 01:44:00,
2013-03-31 21:49:00,73.1,52.2,30.06,SSE,163,0.0,0.0,48,0.00,,,0.00,WUHU216PEETBRO,2013-04-01 01:49:00,
2013-03-31 21:54:00,72.8,52.1,30.06,SSE,163,0.0,0.0,48,0.00,,,0.00,WUHU216PEETBRO,2013-04-01 01:54:00,
2013-03-31 21:59:00,72.5,52.1,30.06,SSE,163,0.0,0.0,49,0.00,,,0.00,WUHU216PEETBRO,2013-04-01 01:59:00,
2013-03-31 22:04:00,72.3,52.2,30.07,SSE,163,0.0,0.0,49,0.00,,,0.00,WUHU216PEETBRO,2013-04-01 02:04:00,
2013-03-31 22:09:00,72.2,52.4,30.06,SSE,163,0.0,0.0,50,0.00,,,0.00,WUHU216PEETBRO,2013-04-01 02:09:00,
2013-03-31 22:14:00,72.1,52.7,30.06,SSE,163,0.0,4.8,50,0.00,,,0.00,WUHU216PEETBRO,2013-04-01 02:14:00,
2013-03-31 22:19:00,71.9,52.8,30.07,SSE,151,0.0,4.8,51,0.00,,,0.00,WUHU216PEETBRO,2013-04-01 02:19:00,
2013-03-31 22:24:00,71.8,52.9,30.07,SSE,151,0.0,2.7,51,0.00,,,0.00,WUHU216PEETBRO,2013-04-01 02:24:00,
2013-03-31 22:29:00,71.6,53.0,30.07,SSE,151,0.0,0.0,52,0.00,,,0.00,WUHU216PEETBRO,2013-04-01 02:29:00,
2013-03-31 22:34:00,71.4,52.7,30.07,SSE,151,0.0,0.0,52,0.00,,,0.00,WUHU216PEETBRO,2013-04-01 02:34:00,
2013-03-31 22:39:00,71.3,52.7,30.07,SSW,210,0.0,4.7,52,0.00,,,0.00,WUHU216PEETBRO,2013-04-01 02:39:00,
2013-03-31 22:44:00,71.2,52.9,30.07,SSW,210,0.0,4.7,52,0.00,,,0.00,WUHU216PEETBRO,2013-04-01 02:44:00,
2013-03-31 22:49:00,70.9,52.7,30.07,SSW,210,0.0,0.0,52,0.00,,,0.00,WUHU216PEETBRO,2013-04-01 02:49:00,
2013-03-31 22:54:00,70.6,52.7,30.08,SSW,210,0.0,0.0,53,0.00,,,0.00,WUHU216PEETBRO,2013-04-01 02:54:00,
2013-03-31 22:59:00,70.3,53.1,30.08,SSW,210,0.0,0.0,54,0.00,,,0.00,WUHU216PEETBRO,2013-04-01 02:59:00,
2013-03-31 23:04:00,70.2,53.2,30.08,SSW,210,0.0,0.0,55,0.00,,,0.00,WUHU216PEETBRO,2013-04-01 03:04:00,
2013-03-31 23:09:00,70.0,53.1,30.08,SSW,210,0.0,0.0,55,0.00,,,0.00,WUHU216PEETBRO,2013-04-01 03:09:00,
2013-03-31 23:14:00,69.8,53.2,30.08,SSW,210,0.0,0.0,55,0.00,,,0.00,WUHU216PEETBRO,2013-04-01 03:14:00,
2013-03-31 23:20:00,69.7,53.7,30.08,SSW,210,0.0,0.0,57,0.00,,,0.00,WUHU216PEETBRO,2013-04-01 03:20:00,
2013-03-31 23:25:00,69.5,53.7,30.08,SSW,210,0.0,0.0,57,0.00,,,0.00,WUHU216PEETBRO,2013-04-01 03:25:00,
2013-03-31 23:30:00,69.5,54.5,30.08,SSW,210,0.0,0.0,59,0.00,,,0.00,WUHU216PEETBRO,2013-04-01 03:30:00,
2013-03-31 23:35:00,69.3,54.9,30.08,SSW,210,0.0,0.0,60,0.00,,,0.00,WUHU216PEETBRO,2013-04-01 03:35:00,
2013-03-31 23:40:00,69.0,55.2,30.08,SSW,210,0.0,0.0,61,0.00,,,0.00,WUHU216PEETBRO,2013-04-01 03:40:00,
2013-03-31 23:45:00,68.8,55.2,30.08,SSW,210,0.0,0.0,62,0.00,,,0.00,WUHU216PEETBRO,2013-04-01 03:45:00,
2013-03-31 23:50:00,68.5,55.2,30.08,SSW,210,0.0,0.0,62,0.00,,,0.00,WUHU216PEETBRO,2013-04-01 03:50:00,
2013-03-31 23:55:00,68.4,55.3,30.08,SSW,210,0.0,0.0,63,0.00,,,0.00,WUHU216PEETBRO,2013-04-01 03:55:00,